sensor_id;sensor_type;location;lat;lon;timestamp;P1;durP1;ratioP1;P2;durP2;ratioP2
14235;SDS011;7202;50.718;7.072;2023-02-26T00:02:03;5.57;;;3.05;;
14235;SDS011;7202;50.718;7.072;2023-02-26T00:04:32;7.93;;;3.17;;
14235;SDS011;7202;50.718;7.072;2023-02-26T00:07:02;5.45;;;3.10;;
14235;SDS011;7202;50.718;7.072;2023-02-26T00:09:31;9.32;;;3.42;;
14235;SDS011;7202;50.718;7.072;2023-02-26T00:12:00;9.13;;;3.40;;
14235;SDS011;7202;50.718;7.072;2023-02-26T00:14:29;8.45;;;3.30;;
14235;SDS011;7202;50.718;7.072;2023-02-26T00:17:06;9.05;;;2.85;;
14235;SDS011;7202;50.718;7.072;2023-02-26T00:19:49;8.27;;;2.97;;
14235;SDS011;7202;50.718;7.072;2023-02-26T00:22:20;8.70;;;3.03;;
14235;SDS011;7202;50.718;7.072;2023-02-26T00:24:49;9.00;;;3.00;;
14235;SDS011;7202;50.718;7.072;2023-02-26T00:27:18;5.15;;;2.83;;
14235;SDS011;7202;50.718;7.072;2023-02-26T00:29:47;5.90;;;2.88;;
14235;SDS011;7202;50.718;7.072;2023-02-26T00:32:16;5.50;;;2.30;;
14235;SDS011;7202;50.718;7.072;2023-02-26T00:34:46;6.40;;;2.63;;
14235;SDS011;7202;50.718;7.072;2023-02-26T00:37:18;8.07;;;2.75;;
14235;SDS011;7202;50.718;7.072;2023-02-26T00:40:01;7.85;;;2.95;;
14235;SDS011;7202;50.718;7.072;2023-02-26T00:42:38;9.98;;;2.88;;
14235;SDS011;7202;50.718;7.072;2023-02-26T00:45:08;6.47;;;2.70;;
14235;SDS011;7202;50.718;7.072;2023-02-26T00:47:39;9.27;;;2.92;;
14235;SDS011;7202;50.718;7.072;2023-02-26T00:50:15;13.98;;;3.08;;
14235;SDS011;7202;50.718;7.072;2023-02-26T00:52:51;6.95;;;2.97;;
14235;SDS011;7202;50.718;7.072;2023-02-26T00:55:26;5.13;;;2.75;;
14235;SDS011;7202;50.718;7.072;2023-02-26T00:57:55;3.97;;;2.22;;
14235;SDS011;7202;50.718;7.072;2023-02-26T01:00:24;7.22;;;2.58;;
14235;SDS011;7202;50.718;7.072;2023-02-26T01:02:53;5.55;;;2.55;;
14235;SDS011;7202;50.718;7.072;2023-02-26T01:05:22;8.02;;;3.53;;
14235;SDS011;7202;50.718;7.072;2023-02-26T01:07:53;7.75;;;2.22;;
14235;SDS011;7202;50.718;7.072;2023-02-26T01:10:30;8.63;;;2.90;;
14235;SDS011;7202;50.718;7.072;2023-02-26T01:13:00;6.25;;;2.47;;
14235;SDS011;7202;50.718;7.072;2023-02-26T01:15:29;4.47;;;2.50;;
14235;SDS011;7202;50.718;7.072;2023-02-26T01:17:59;7.07;;;2.90;;
14235;SDS011;7202;50.718;7.072;2023-02-26T01:20:37;6.88;;;2.83;;
14235;SDS011;7202;50.718;7.072;2023-02-26T01:23:15;8.55;;;3.00;;
14235;SDS011;7202;50.718;7.072;2023-02-26T01:25:46;6.75;;;2.72;;
14235;SDS011;7202;50.718;7.072;2023-02-26T01:28:18;5.50;;;2.75;;
14235;SDS011;7202;50.718;7.072;2023-02-26T01:30:47;5.55;;;1.92;;
14235;SDS011;7202;50.718;7.072;2023-02-26T01:33:17;7.32;;;2.25;;
14235;SDS011;7202;50.718;7.072;2023-02-26T01:35:53;4.23;;;2.10;;
14235;SDS011;7202;50.718;7.072;2023-02-26T01:38:28;7.68;;;2.20;;
14235;SDS011;7202;50.718;7.072;2023-02-26T01:41:15;10.70;;;2.70;;
14235;SDS011;7202;50.718;7.072;2023-02-26T01:43:56;6.97;;;2.30;;
14235;SDS011;7202;50.718;7.072;2023-02-26T01:46:50;4.18;;;2.58;;
14235;SDS011;7202;50.718;7.072;2023-02-26T01:49:27;4.78;;;2.30;;
14235;SDS011;7202;50.718;7.072;2023-02-26T01:51:57;7.90;;;3.03;;
14235;SDS011;7202;50.718;7.072;2023-02-26T01:54:29;5.97;;;2.20;;
14235;SDS011;7202;50.718;7.072;2023-02-26T01:57:00;13.20;;;2.63;;
14235;SDS011;7202;50.718;7.072;2023-02-26T01:59:33;4.37;;;2.13;;
14235;SDS011;7202;50.718;7.072;2023-02-26T02:02:05;6.43;;;2.53;;
14235;SDS011;7202;50.718;7.072;2023-02-26T02:04:37;4.17;;;2.10;;
14235;SDS011;7202;50.718;7.072;2023-02-26T02:07:08;4.10;;;2.30;;
14235;SDS011;7202;50.718;7.072;2023-02-26T02:09:39;5.07;;;1.77;;
14235;SDS011;7202;50.718;7.072;2023-02-26T02:12:21;5.17;;;2.20;;
14235;SDS011;7202;50.718;7.072;2023-02-26T02:15:00;5.95;;;2.63;;
14235;SDS011;7202;50.718;7.072;2023-02-26T02:17:40;9.65;;;2.72;;
14235;SDS011;7202;50.718;7.072;2023-02-26T02:20:31;4.47;;;2.63;;
14235;SDS011;7202;50.718;7.072;2023-02-26T02:23:19;6.57;;;2.37;;
14235;SDS011;7202;50.718;7.072;2023-02-26T02:26:11;5.63;;;2.90;;
14235;SDS011;7202;50.718;7.072;2023-02-26T02:29:07;7.90;;;3.03;;
14235;SDS011;7202;50.718;7.072;2023-02-26T02:32:03;4.57;;;2.58;;
14235;SDS011;7202;50.718;7.072;2023-02-26T02:34:35;3.20;;;2.50;;
14235;SDS011;7202;50.718;7.072;2023-02-26T02:37:10;3.72;;;2.45;;
14235;SDS011;7202;50.718;7.072;2023-02-26T02:40:00;3.73;;;1.97;;
14235;SDS011;7202;50.718;7.072;2023-02-26T02:42:32;9.32;;;2.38;;
14235;SDS011;7202;50.718;7.072;2023-02-26T02:45:06;6.43;;;2.53;;
14235;SDS011;7202;50.718;7.072;2023-02-26T02:47:39;10.30;;;2.83;;
14235;SDS011;7202;50.718;7.072;2023-02-26T02:50:16;7.60;;;2.90;;
14235;SDS011;7202;50.718;7.072;2023-02-26T02:52:50;4.53;;;2.13;;
14235;SDS011;7202;50.718;7.072;2023-02-26T02:55:24;5.15;;;2.63;;
14235;SDS011;7202;50.718;7.072;2023-02-26T02:57:56;4.93;;;2.85;;
14235;SDS011;7202;50.718;7.072;2023-02-26T03:00:29;13.88;;;3.00;;
14235;SDS011;7202;50.718;7.072;2023-02-26T03:03:03;4.83;;;2.90;;
14235;SDS011;7202;50.718;7.072;2023-02-26T03:05:36;5.07;;;2.93;;
14235;SDS011;7202;50.718;7.072;2023-02-26T03:08:05;6.57;;;2.60;;
14235;SDS011;7202;50.718;7.072;2023-02-26T03:10:39;6.63;;;3.20;;
14235;SDS011;7202;50.718;7.072;2023-02-26T03:13:13;8.50;;;3.13;;
14235;SDS011;7202;50.718;7.072;2023-02-26T03:15:46;4.43;;;2.90;;
14235;SDS011;7202;50.718;7.072;2023-02-26T03:18:25;5.63;;;2.90;;
14235;SDS011;7202;50.718;7.072;2023-02-26T03:21:08;6.37;;;3.00;;
14235;SDS011;7202;50.718;7.072;2023-02-26T03:23:42;9.60;;;2.87;;
14235;SDS011;7202;50.718;7.072;2023-02-26T03:26:21;5.90;;;2.93;;
14235;SDS011;7202;50.718;7.072;2023-02-26T03:28:58;4.27;;;2.43;;
14235;SDS011;7202;50.718;7.072;2023-02-26T03:31:32;8.70;;;3.33;;
14235;SDS011;7202;50.718;7.072;2023-02-26T03:34:06;4.33;;;2.53;;
14235;SDS011;7202;50.718;7.072;2023-02-26T03:36:41;9.20;;;2.70;;
14235;SDS011;7202;50.718;7.072;2023-02-26T03:39:28;5.53;;;2.70;;
14235;SDS011;7202;50.718;7.072;2023-02-26T03:42:03;7.07;;;2.47;;
14235;SDS011;7202;50.718;7.072;2023-02-26T03:44:46;6.40;;;2.93;;
14235;SDS011;7202;50.718;7.072;2023-02-26T03:47:19;7.13;;;2.77;;
14235;SDS011;7202;50.718;7.072;2023-02-26T03:49:52;7.17;;;2.70;;
14235;SDS011;7202;50.718;7.072;2023-02-26T03:52:26;7.43;;;2.43;;
14235;SDS011;7202;50.718;7.072;2023-02-26T03:55:27;5.43;;;2.60;;
14235;SDS011;7202;50.718;7.072;2023-02-26T03:58:21;5.83;;;2.40;;
14235;SDS011;7202;50.718;7.072;2023-02-26T04:01:15;8.27;;;2.53;;
14235;SDS011;7202;50.718;7.072;2023-02-26T04:03:48;13.10;;;2.80;;
14235;SDS011;7202;50.718;7.072;2023-02-26T04:06:20;5.13;;;2.43;;
14235;SDS011;7202;50.718;7.072;2023-02-26T04:08:50;8.50;;;3.10;;
14235;SDS011;7202;50.718;7.072;2023-02-26T04:11:20;4.70;;;2.97;;
14235;SDS011;7202;50.718;7.072;2023-02-26T04:13:51;6.20;;;2.70;;
14235;SDS011;7202;50.718;7.072;2023-02-26T04:16:19;6.83;;;3.00;;
14235;SDS011;7202;50.718;7.072;2023-02-26T04:18:50;5.70;;;2.77;;
14235;SDS011;7202;50.718;7.072;2023-02-26T04:21:19;9.90;;;3.20;;
14235;SDS011;7202;50.718;7.072;2023-02-26T04:23:50;5.17;;;2.97;;
14235;SDS011;7202;50.718;7.072;2023-02-26T04:26:19;5.50;;;2.87;;
14235;SDS011;7202;50.718;7.072;2023-02-26T04:28:48;7.13;;;2.70;;
14235;SDS011;7202;50.718;7.072;2023-02-26T04:31:18;7.77;;;2.80;;
14235;SDS011;7202;50.718;7.072;2023-02-26T04:33:47;4.10;;;2.90;;
14235;SDS011;7202;50.718;7.072;2023-02-26T04:36:16;6.37;;;2.30;;
14235;SDS011;7202;50.718;7.072;2023-02-26T04:38:44;7.60;;;2.83;;
14235;SDS011;7202;50.718;7.072;2023-02-26T04:41:13;5.73;;;3.10;;
14235;SDS011;7202;50.718;7.072;2023-02-26T04:43:43;5.53;;;2.73;;
14235;SDS011;7202;50.718;7.072;2023-02-26T04:46:32;6.47;;;3.00;;
14235;SDS011;7202;50.718;7.072;2023-02-26T04:49:01;5.80;;;2.70;;
14235;SDS011;7202;50.718;7.072;2023-02-26T04:51:30;11.67;;;3.20;;
14235;SDS011;7202;50.718;7.072;2023-02-26T04:53:59;6.20;;;2.90;;
14235;SDS011;7202;50.718;7.072;2023-02-26T04:56:27;5.80;;;3.00;;
14235;SDS011;7202;50.718;7.072;2023-02-26T04:58:57;5.53;;;2.73;;
14235;SDS011;7202;50.718;7.072;2023-02-26T05:01:28;5.37;;;2.60;;
14235;SDS011;7202;50.718;7.072;2023-02-26T05:04:00;6.13;;;2.63;;
14235;SDS011;7202;50.718;7.072;2023-02-26T05:06:29;4.77;;;2.60;;
14235;SDS011;7202;50.718;7.072;2023-02-26T05:08:57;4.90;;;2.50;;
14235;SDS011;7202;50.718;7.072;2023-02-26T05:11:26;6.20;;;2.30;;
14235;SDS011;7202;50.718;7.072;2023-02-26T05:13:54;7.17;;;2.80;;
14235;SDS011;7202;50.718;7.072;2023-02-26T05:16:23;5.23;;;2.20;;
14235;SDS011;7202;50.718;7.072;2023-02-26T05:18:52;5.13;;;2.30;;
14235;SDS011;7202;50.718;7.072;2023-02-26T05:21:23;4.03;;;2.47;;
14235;SDS011;7202;50.718;7.072;2023-02-26T05:23:52;2.97;;;2.33;;
14235;SDS011;7202;50.718;7.072;2023-02-26T05:26:21;5.27;;;2.20;;
14235;SDS011;7202;50.718;7.072;2023-02-26T05:28:50;8.77;;;2.50;;
14235;SDS011;7202;50.718;7.072;2023-02-26T05:31:19;4.10;;;1.93;;
14235;SDS011;7202;50.718;7.072;2023-02-26T05:33:48;4.03;;;1.83;;
14235;SDS011;7202;50.718;7.072;2023-02-26T05:36:16;8.10;;;2.10;;
14235;SDS011;7202;50.718;7.072;2023-02-26T05:38:46;7.00;;;2.70;;
14235;SDS011;7202;50.718;7.072;2023-02-26T05:41:15;4.03;;;2.00;;
14235;SDS011;7202;50.718;7.072;2023-02-26T05:43:43;4.87;;;2.03;;
14235;SDS011;7202;50.718;7.072;2023-02-26T05:46:12;5.33;;;2.23;;
14235;SDS011;7202;50.718;7.072;2023-02-26T05:48:41;7.13;;;2.40;;
14235;SDS011;7202;50.718;7.072;2023-02-26T05:51:11;4.77;;;2.00;;
14235;SDS011;7202;50.718;7.072;2023-02-26T05:53:40;4.70;;;2.43;;
14235;SDS011;7202;50.718;7.072;2023-02-26T05:56:10;6.37;;;2.50;;
14235;SDS011;7202;50.718;7.072;2023-02-26T05:58:39;2.57;;;2.00;;
14235;SDS011;7202;50.718;7.072;2023-02-26T06:01:08;3.13;;;2.10;;
14235;SDS011;7202;50.718;7.072;2023-02-26T06:03:36;6.37;;;2.60;;
14235;SDS011;7202;50.718;7.072;2023-02-26T06:06:06;3.23;;;2.10;;
14235;SDS011;7202;50.718;7.072;2023-02-26T06:08:35;4.53;;;2.50;;
14235;SDS011;7202;50.718;7.072;2023-02-26T06:11:04;4.17;;;2.17;;
14235;SDS011;7202;50.718;7.072;2023-02-26T06:13:34;5.97;;;2.23;;
14235;SDS011;7202;50.718;7.072;2023-02-26T06:16:03;4.80;;;2.10;;
14235;SDS011;7202;50.718;7.072;2023-02-26T06:18:32;2.67;;;1.83;;
14235;SDS011;7202;50.718;7.072;2023-02-26T06:21:00;5.27;;;2.00;;
14235;SDS011;7202;50.718;7.072;2023-02-26T06:23:29;9.70;;;2.13;;
14235;SDS011;7202;50.718;7.072;2023-02-26T06:25:58;7.63;;;1.90;;
14235;SDS011;7202;50.718;7.072;2023-02-26T06:28:27;3.60;;;1.90;;
14235;SDS011;7202;50.718;7.072;2023-02-26T06:30:57;3.47;;;2.20;;
14235;SDS011;7202;50.718;7.072;2023-02-26T06:33:26;6.27;;;2.83;;
14235;SDS011;7202;50.718;7.072;2023-02-26T06:35:55;5.13;;;2.33;;
14235;SDS011;7202;50.718;7.072;2023-02-26T06:38:26;5.60;;;2.67;;
14235;SDS011;7202;50.718;7.072;2023-02-26T06:40:54;3.23;;;2.03;;
14235;SDS011;7202;50.718;7.072;2023-02-26T06:43:23;3.27;;;2.10;;
14235;SDS011;7202;50.718;7.072;2023-02-26T06:45:52;4.40;;;2.30;;
14235;SDS011;7202;50.718;7.072;2023-02-26T06:48:25;4.43;;;2.10;;
14235;SDS011;7202;50.718;7.072;2023-02-26T06:50:54;3.17;;;1.93;;
14235;SDS011;7202;50.718;7.072;2023-02-26T06:53:23;5.60;;;2.50;;
14235;SDS011;7202;50.718;7.072;2023-02-26T06:55:51;4.87;;;2.63;;
14235;SDS011;7202;50.718;7.072;2023-02-26T06:58:22;5.37;;;2.90;;
14235;SDS011;7202;50.718;7.072;2023-02-26T07:00:51;4.80;;;2.50;;
14235;SDS011;7202;50.718;7.072;2023-02-26T07:03:20;4.10;;;2.53;;
14235;SDS011;7202;50.718;7.072;2023-02-26T07:05:50;4.10;;;2.50;;
14235;SDS011;7202;50.718;7.072;2023-02-26T07:08:19;7.63;;;3.33;;
14235;SDS011;7202;50.718;7.072;2023-02-26T07:10:48;6.77;;;3.27;;
14235;SDS011;7202;50.718;7.072;2023-02-26T07:13:17;4.37;;;2.77;;
14235;SDS011;7202;50.718;7.072;2023-02-26T07:15:46;6.80;;;2.70;;
14235;SDS011;7202;50.718;7.072;2023-02-26T07:18:14;5.33;;;2.60;;
14235;SDS011;7202;50.718;7.072;2023-02-26T07:20:43;3.40;;;2.30;;
14235;SDS011;7202;50.718;7.072;2023-02-26T07:23:13;5.97;;;2.70;;
14235;SDS011;7202;50.718;7.072;2023-02-26T07:25:42;6.67;;;3.03;;
14235;SDS011;7202;50.718;7.072;2023-02-26T07:28:10;5.20;;;3.00;;
14235;SDS011;7202;50.718;7.072;2023-02-26T07:30:39;8.37;;;3.27;;
14235;SDS011;7202;50.718;7.072;2023-02-26T07:33:08;6.27;;;3.53;;
14235;SDS011;7202;50.718;7.072;2023-02-26T07:35:39;7.57;;;2.83;;
14235;SDS011;7202;50.718;7.072;2023-02-26T07:38:08;6.90;;;3.70;;
14235;SDS011;7202;50.718;7.072;2023-02-26T07:40:38;4.73;;;3.47;;
14235;SDS011;7202;50.718;7.072;2023-02-26T07:43:06;6.40;;;3.03;;
14235;SDS011;7202;50.718;7.072;2023-02-26T07:45:35;6.20;;;3.60;;
14235;SDS011;7202;50.718;7.072;2023-02-26T07:48:03;4.90;;;3.50;;
14235;SDS011;7202;50.718;7.072;2023-02-26T07:50:32;6.80;;;3.40;;
14235;SDS011;7202;50.718;7.072;2023-02-26T07:53:01;5.93;;;3.40;;
14235;SDS011;7202;50.718;7.072;2023-02-26T07:55:29;7.80;;;3.70;;
14235;SDS011;7202;50.718;7.072;2023-02-26T07:57:59;5.80;;;3.63;;
14235;SDS011;7202;50.718;7.072;2023-02-26T08:00:28;5.23;;;3.83;;
14235;SDS011;7202;50.718;7.072;2023-02-26T08:02:56;7.17;;;3.67;;
14235;SDS011;7202;50.718;7.072;2023-02-26T08:05:25;5.80;;;3.80;;
14235;SDS011;7202;50.718;7.072;2023-02-26T08:07:57;7.87;;;4.20;;
14235;SDS011;7202;50.718;7.072;2023-02-26T08:10:27;9.50;;;4.40;;
14235;SDS011;7202;50.718;7.072;2023-02-26T08:12:56;9.37;;;4.37;;
14235;SDS011;7202;50.718;7.072;2023-02-26T08:15:26;6.27;;;3.80;;
14235;SDS011;7202;50.718;7.072;2023-02-26T08:17:55;5.03;;;3.67;;
14235;SDS011;7202;50.718;7.072;2023-02-26T08:20:24;5.20;;;3.90;;
14235;SDS011;7202;50.718;7.072;2023-02-26T08:22:52;8.03;;;5.00;;
14235;SDS011;7202;50.718;7.072;2023-02-26T08:25:21;7.30;;;4.10;;
14235;SDS011;7202;50.718;7.072;2023-02-26T08:27:49;6.57;;;4.97;;
14235;SDS011;7202;50.718;7.072;2023-02-26T08:30:18;6.00;;;4.23;;
14235;SDS011;7202;50.718;7.072;2023-02-26T08:32:48;9.90;;;5.13;;
14235;SDS011;7202;50.718;7.072;2023-02-26T08:35:17;6.07;;;3.90;;
14235;SDS011;7202;50.718;7.072;2023-02-26T08:37:46;9.17;;;4.23;;
14235;SDS011;7202;50.718;7.072;2023-02-26T08:40:14;14.17;;;4.70;;
14235;SDS011;7202;50.718;7.072;2023-02-26T08:42:43;9.65;;;4.25;;
14235;SDS011;7202;50.718;7.072;2023-02-26T08:45:11;5.78;;;3.67;;
14235;SDS011;7202;50.718;7.072;2023-02-26T08:47:40;6.70;;;3.70;;
14235;SDS011;7202;50.718;7.072;2023-02-26T08:50:24;8.90;;;4.22;;
14235;SDS011;7202;50.718;7.072;2023-02-26T08:52:53;5.30;;;3.63;;
14235;SDS011;7202;50.718;7.072;2023-02-26T08:55:22;7.88;;;3.15;;
14235;SDS011;7202;50.718;7.072;2023-02-26T08:57:50;4.28;;;3.47;;
14235;SDS011;7202;50.718;7.072;2023-02-26T09:00:19;5.55;;;3.65;;
14235;SDS011;7202;50.718;7.072;2023-02-26T09:02:48;8.20;;;3.83;;
14235;SDS011;7202;50.718;7.072;2023-02-26T09:05:17;4.50;;;3.15;;
14235;SDS011;7202;50.718;7.072;2023-02-26T09:07:47;6.65;;;3.47;;
14235;SDS011;7202;50.718;7.072;2023-02-26T09:10:16;10.73;;;5.15;;
14235;SDS011;7202;50.718;7.072;2023-02-26T09:12:45;7.40;;;3.33;;
14235;SDS011;7202;50.718;7.072;2023-02-26T09:15:14;7.10;;;3.85;;
14235;SDS011;7202;50.718;7.072;2023-02-26T09:17:44;7.95;;;3.95;;
14235;SDS011;7202;50.718;7.072;2023-02-26T09:20:13;7.82;;;3.58;;
14235;SDS011;7202;50.718;7.072;2023-02-26T09:22:43;5.22;;;3.60;;
14235;SDS011;7202;50.718;7.072;2023-02-26T09:25:13;4.03;;;2.78;;
14235;SDS011;7202;50.718;7.072;2023-02-26T09:27:42;5.85;;;2.92;;
14235;SDS011;7202;50.718;7.072;2023-02-26T09:30:10;6.53;;;3.30;;
14235;SDS011;7202;50.718;7.072;2023-02-26T09:32:40;3.85;;;3.05;;
14235;SDS011;7202;50.718;7.072;2023-02-26T09:35:09;4.57;;;2.47;;
14235;SDS011;7202;50.718;7.072;2023-02-26T09:37:38;5.20;;;2.47;;
14235;SDS011;7202;50.718;7.072;2023-02-26T09:40:08;4.63;;;2.40;;
14235;SDS011;7202;50.718;7.072;2023-02-26T09:42:45;4.38;;;2.47;;
14235;SDS011;7202;50.718;7.072;2023-02-26T09:45:29;4.03;;;1.90;;
14235;SDS011;7202;50.718;7.072;2023-02-26T09:48:01;3.85;;;2.28;;
14235;SDS011;7202;50.718;7.072;2023-02-26T09:50:36;3.97;;;2.25;;
14235;SDS011;7202;50.718;7.072;2023-02-26T09:53:10;3.90;;;2.35;;
14235;SDS011;7202;50.718;7.072;2023-02-26T09:55:43;5.28;;;1.98;;
14235;SDS011;7202;50.718;7.072;2023-02-26T09:58:17;4.25;;;2.22;;
14235;SDS011;7202;50.718;7.072;2023-02-26T10:00:51;3.72;;;2.00;;
14235;SDS011;7202;50.718;7.072;2023-02-26T10:03:27;3.33;;;1.83;;
14235;SDS011;7202;50.718;7.072;2023-02-26T10:06:08;2.72;;;1.65;;
14235;SDS011;7202;50.718;7.072;2023-02-26T10:08:47;2.95;;;1.83;;
14235;SDS011;7202;50.718;7.072;2023-02-26T10:11:28;2.15;;;1.67;;
14235;SDS011;7202;50.718;7.072;2023-02-26T10:14:06;3.42;;;1.80;;
14235;SDS011;7202;50.718;7.072;2023-02-26T10:16:41;2.70;;;1.77;;
14235;SDS011;7202;50.718;7.072;2023-02-26T10:19:17;1.92;;;1.45;;
14235;SDS011;7202;50.718;7.072;2023-02-26T10:21:48;3.13;;;1.55;;
14235;SDS011;7202;50.718;7.072;2023-02-26T10:24:21;4.00;;;1.60;;
14235;SDS011;7202;50.718;7.072;2023-02-26T10:26:54;2.15;;;1.60;;
14235;SDS011;7202;50.718;7.072;2023-02-26T10:29:42;5.20;;;1.60;;
14235;SDS011;7202;50.718;7.072;2023-02-26T10:32:18;2.03;;;1.27;;
14235;SDS011;7202;50.718;7.072;2023-02-26T10:34:53;1.65;;;1.00;;
14235;SDS011;7202;50.718;7.072;2023-02-26T10:37:27;4.07;;;1.20;;
14235;SDS011;7202;50.718;7.072;2023-02-26T10:40:08;3.80;;;1.10;;
14235;SDS011;7202;50.718;7.072;2023-02-26T10:42:41;1.55;;;1.30;;
14235;SDS011;7202;50.718;7.072;2023-02-26T10:45:22;1.80;;;1.10;;
14235;SDS011;7202;50.718;7.072;2023-02-26T10:48:19;1.58;;;0.80;;
14235;SDS011;7202;50.718;7.072;2023-02-26T10:51:05;2.28;;;1.27;;
14235;SDS011;7202;50.718;7.072;2023-02-26T10:53:40;2.38;;;1.17;;
14235;SDS011;7202;50.718;7.072;2023-02-26T10:56:12;1.15;;;1.00;;
14235;SDS011;7202;50.718;7.072;2023-02-26T10:58:44;4.15;;;0.80;;
14235;SDS011;7202;50.718;7.072;2023-02-26T11:01:15;1.77;;;0.90;;
14235;SDS011;7202;50.718;7.072;2023-02-26T11:03:47;1.27;;;0.80;;
14235;SDS011;7202;50.718;7.072;2023-02-26T11:06:18;1.40;;;1.05;;
14235;SDS011;7202;50.718;7.072;2023-02-26T11:08:51;2.60;;;1.25;;
14235;SDS011;7202;50.718;7.072;2023-02-26T11:11:35;2.97;;;0.80;;
14235;SDS011;7202;50.718;7.072;2023-02-26T11:14:08;1.58;;;0.95;;
14235;SDS011;7202;50.718;7.072;2023-02-26T11:16:44;1.27;;;1.00;;
14235;SDS011;7202;50.718;7.072;2023-02-26T11:19:16;2.35;;;1.10;;
14235;SDS011;7202;50.718;7.072;2023-02-26T11:21:47;1.92;;;1.05;;
14235;SDS011;7202;50.718;7.072;2023-02-26T11:24:18;3.05;;;1.38;;
14235;SDS011;7202;50.718;7.072;2023-02-26T11:26:54;2.85;;;1.10;;
14235;SDS011;7202;50.718;7.072;2023-02-26T11:29:25;2.70;;;1.05;;
14235;SDS011;7202;50.718;7.072;2023-02-26T11:31:55;3.35;;;1.17;;
14235;SDS011;7202;50.718;7.072;2023-02-26T11:34:30;1.48;;;1.10;;
14235;SDS011;7202;50.718;7.072;2023-02-26T11:37:00;1.50;;;1.13;;
14235;SDS011;7202;50.718;7.072;2023-02-26T11:39:32;2.10;;;1.00;;
14235;SDS011;7202;50.718;7.072;2023-02-26T11:42:02;3.25;;;1.25;;
14235;SDS011;7202;50.718;7.072;2023-02-26T11:44:33;2.03;;;1.00;;
14235;SDS011;7202;50.718;7.072;2023-02-26T11:47:06;1.73;;;0.98;;
14235;SDS011;7202;50.718;7.072;2023-02-26T11:49:40;3.58;;;1.23;;
14235;SDS011;7202;50.718;7.072;2023-02-26T11:52:19;1.65;;;1.00;;
14235;SDS011;7202;50.718;7.072;2023-02-26T11:54:50;1.52;;;0.90;;
14235;SDS011;7202;50.718;7.072;2023-02-26T11:57:24;1.85;;;1.00;;
14235;SDS011;7202;50.718;7.072;2023-02-26T11:59:56;1.73;;;0.95;;
14235;SDS011;7202;50.718;7.072;2023-02-26T12:02:30;0.85;;;0.77;;
14235;SDS011;7202;50.718;7.072;2023-02-26T12:05:02;2.45;;;1.20;;
14235;SDS011;7202;50.718;7.072;2023-02-26T12:07:33;1.65;;;1.00;;
14235;SDS011;7202;50.718;7.072;2023-02-26T12:10:04;1.27;;;0.80;;
14235;SDS011;7202;50.718;7.072;2023-02-26T12:12:44;2.45;;;0.90;;
14235;SDS011;7202;50.718;7.072;2023-02-26T12:15:22;1.90;;;1.10;;
14235;SDS011;7202;50.718;7.072;2023-02-26T12:18:16;1.95;;;0.93;;
14235;SDS011;7202;50.718;7.072;2023-02-26T12:21:12;2.22;;;1.05;;
14235;SDS011;7202;50.718;7.072;2023-02-26T12:27:05;2.17;;;1.38;;
14235;SDS011;7202;50.718;7.072;2023-02-26T12:29:45;1.42;;;1.20;;
14235;SDS011;7202;50.718;7.072;2023-02-26T12:32:28;0.60;;;0.52;;
14235;SDS011;7202;50.718;7.072;2023-02-26T12:35:16;2.88;;;0.98;;
14235;SDS011;7202;50.718;7.072;2023-02-26T12:38:07;2.63;;;1.00;;
14235;SDS011;7202;50.718;7.072;2023-02-26T12:40:44;2.35;;;0.68;;
14235;SDS011;7202;50.718;7.072;2023-02-26T12:43:38;1.52;;;0.80;;
14235;SDS011;7202;50.718;7.072;2023-02-26T12:46:15;1.98;;;1.30;;
14235;SDS011;7202;50.718;7.072;2023-02-26T12:48:59;1.58;;;0.82;;
14235;SDS011;7202;50.718;7.072;2023-02-26T12:51:44;7.50;;;0.90;;
14235;SDS011;7202;50.718;7.072;2023-02-26T12:54:28;2.38;;;0.93;;
14235;SDS011;7202;50.718;7.072;2023-02-26T12:57:27;5.10;;;1.13;;
14235;SDS011;7202;50.718;7.072;2023-02-26T13:03:38;1.70;;;1.15;;
14235;SDS011;7202;50.718;7.072;2023-02-26T13:06:28;0.85;;;0.70;;
14235;SDS011;7202;50.718;7.072;2023-02-26T13:09:30;1.42;;;0.90;;
14235;SDS011;7202;50.718;7.072;2023-02-26T13:12:13;2.15;;;1.00;;
14235;SDS011;7202;50.718;7.072;2023-02-26T13:14:53;2.17;;;0.82;;
14235;SDS011;7202;50.718;7.072;2023-02-26T13:17:31;2.03;;;0.90;;
14235;SDS011;7202;50.718;7.072;2023-02-26T13:20:09;1.00;;;0.80;;
14235;SDS011;7202;50.718;7.072;2023-02-26T13:22:41;1.95;;;1.00;;
14235;SDS011;7202;50.718;7.072;2023-02-26T13:25:17;1.52;;;1.02;;
14235;SDS011;7202;50.718;7.072;2023-02-26T13:27:52;2.10;;;0.82;;
14235;SDS011;7202;50.718;7.072;2023-02-26T13:30:24;1.92;;;0.80;;
14235;SDS011;7202;50.718;7.072;2023-02-26T13:32:58;0.90;;;0.75;;
14235;SDS011;7202;50.718;7.072;2023-02-26T13:35:30;1.05;;;0.60;;
14235;SDS011;7202;50.718;7.072;2023-02-26T13:38:01;0.63;;;0.50;;
14235;SDS011;7202;50.718;7.072;2023-02-26T13:40:50;3.25;;;1.08;;
14235;SDS011;7202;50.718;7.072;2023-02-26T13:43:31;2.67;;;1.00;;
14235;SDS011;7202;50.718;7.072;2023-02-26T13:46:11;1.13;;;0.82;;
14235;SDS011;7202;50.718;7.072;2023-02-26T13:48:50;2.00;;;0.88;;
14235;SDS011;7202;50.718;7.072;2023-02-26T13:51:26;1.15;;;0.95;;
14235;SDS011;7202;50.718;7.072;2023-02-26T13:54:00;3.53;;;1.10;;
14235;SDS011;7202;50.718;7.072;2023-02-26T13:59:51;1.08;;;0.90;;
14235;SDS011;7202;50.718;7.072;2023-02-26T14:02:35;2.00;;;1.08;;
14235;SDS011;7202;50.718;7.072;2023-02-26T14:05:33;1.90;;;1.15;;
14235;SDS011;7202;50.718;7.072;2023-02-26T14:14:09;0.85;;;0.70;;
14235;SDS011;7202;50.718;7.072;2023-02-26T14:16:41;4.30;;;0.98;;
14235;SDS011;7202;50.718;7.072;2023-02-26T14:19:18;1.23;;;0.80;;
14235;SDS011;7202;50.718;7.072;2023-02-26T14:21:50;2.30;;;0.90;;
14235;SDS011;7202;50.718;7.072;2023-02-26T14:24:21;1.23;;;0.80;;
14235;SDS011;7202;50.718;7.072;2023-02-26T14:27:02;1.90;;;0.98;;
14235;SDS011;7202;50.718;7.072;2023-02-26T14:29:38;2.42;;;1.30;;
14235;SDS011;7202;50.718;7.072;2023-02-26T14:32:12;1.63;;;0.80;;
14235;SDS011;7202;50.718;7.072;2023-02-26T14:34:47;3.85;;;1.00;;
14235;SDS011;7202;50.718;7.072;2023-02-26T14:37:19;1.92;;;1.20;;
14235;SDS011;7202;50.718;7.072;2023-02-26T14:39:53;0.80;;;0.63;;
14235;SDS011;7202;50.718;7.072;2023-02-26T14:42:28;2.53;;;0.93;;
14235;SDS011;7202;50.718;7.072;2023-02-26T14:45:07;1.40;;;0.80;;
14235;SDS011;7202;50.718;7.072;2023-02-26T14:47:44;2.15;;;1.00;;
14235;SDS011;7202;50.718;7.072;2023-02-26T14:50:15;2.95;;;1.05;;
14235;SDS011;7202;50.718;7.072;2023-02-26T14:55:54;1.48;;;1.00;;
14235;SDS011;7202;50.718;7.072;2023-02-26T14:58:44;1.50;;;1.00;;
14235;SDS011;7202;50.718;7.072;2023-02-26T15:01:35;1.60;;;0.95;;
14235;SDS011;7202;50.718;7.072;2023-02-26T15:04:16;3.83;;;1.20;;
14235;SDS011;7202;50.718;7.072;2023-02-26T15:07:06;1.35;;;0.80;;
14235;SDS011;7202;50.718;7.072;2023-02-26T15:09:47;2.03;;;0.75;;
14235;SDS011;7202;50.718;7.072;2023-02-26T15:12:36;2.45;;;1.00;;
14235;SDS011;7202;50.718;7.072;2023-02-26T15:15:17;2.97;;;1.10;;
14235;SDS011;7202;50.718;7.072;2023-02-26T15:17:59;1.55;;;0.82;;
14235;SDS011;7202;50.718;7.072;2023-02-26T15:20:40;4.32;;;1.33;;
14235;SDS011;7202;50.718;7.072;2023-02-26T15:23:22;1.67;;;1.20;;
14235;SDS011;7202;50.718;7.072;2023-02-26T15:26:03;2.67;;;1.00;;
14235;SDS011;7202;50.718;7.072;2023-02-26T15:28:34;2.33;;;1.25;;
14235;SDS011;7202;50.718;7.072;2023-02-26T15:31:05;2.35;;;0.98;;
14235;SDS011;7202;50.718;7.072;2023-02-26T15:33:40;2.65;;;0.80;;
14235;SDS011;7202;50.718;7.072;2023-02-26T15:36:12;1.25;;;0.80;;
14235;SDS011;7202;50.718;7.072;2023-02-26T15:38:46;3.05;;;1.02;;
14235;SDS011;7202;50.718;7.072;2023-02-26T15:41:15;1.83;;;1.00;;
14235;SDS011;7202;50.718;7.072;2023-02-26T15:43:46;2.70;;;1.20;;
14235;SDS011;7202;50.718;7.072;2023-02-26T15:46:18;1.85;;;1.10;;
14235;SDS011;7202;50.718;7.072;2023-02-26T15:48:51;1.00;;;0.80;;
14235;SDS011;7202;50.718;7.072;2023-02-26T15:51:25;2.40;;;1.00;;
14235;SDS011;7202;50.718;7.072;2023-02-26T15:53:55;3.15;;;0.88;;
14235;SDS011;7202;50.718;7.072;2023-02-26T15:56:29;2.88;;;1.02;;
14235;SDS011;7202;50.718;7.072;2023-02-26T15:59:03;1.27;;;0.77;;
14235;SDS011;7202;50.718;7.072;2023-02-26T16:01:35;3.28;;;1.00;;